sensor_id;sensor_type;location;lat;lon;timestamp;temperature;humidity
26743;DHT22;14341;51.256;22.478;2022-07-23T00:02:39;19.40;99.90
26743;DHT22;14341;51.256;22.478;2022-07-23T00:05:43;19.30;99.90
26743;DHT22;14341;51.256;22.478;2022-07-23T00:08:48;19.40;99.90
26743;DHT22;14341;51.256;22.478;2022-07-23T00:11:51;19.40;99.90
26743;DHT22;14341;51.256;22.478;2022-07-23T00:14:54;19.40;99.90
26743;DHT22;14341;51.256;22.478;2022-07-23T00:17:58;19.40;99.90
26743;DHT22;14341;51.256;22.478;2022-07-23T00:21:03;19.30;99.90
26743;DHT22;14341;51.256;22.478;2022-07-23T00:24:08;19.20;99.90
26743;DHT22;14341;51.256;22.478;2022-07-23T00:27:12;19.10;99.90
26743;DHT22;14341;51.256;22.478;2022-07-23T00:30:15;19.10;99.90
26743;DHT22;14341;51.256;22.478;2022-07-23T00:33:18;19.10;99.90
26743;DHT22;14341;51.256;22.478;2022-07-23T00:36:22;19.00;99.90
26743;DHT22;14341;51.256;22.478;2022-07-23T00:39:27;19.00;99.90
26743;DHT22;14341;51.256;22.478;2022-07-23T00:42:31;19.00;99.90
26743;DHT22;14341;51.256;22.478;2022-07-23T00:45:35;18.90;99.90
26743;DHT22;14341;51.256;22.478;2022-07-23T00:48:39;18.90;99.90
26743;DHT22;14341;51.256;22.478;2022-07-23T00:51:42;18.90;99.90
26743;DHT22;14341;51.256;22.478;2022-07-23T00:54:47;18.80;99.90
26743;DHT22;14341;51.256;22.478;2022-07-23T00:57:51;18.80;99.90
26743;DHT22;14341;51.256;22.478;2022-07-23T01:01:02;18.80;99.90
26743;DHT22;14341;51.256;22.478;2022-07-23T01:04:05;18.80;99.90
26743;DHT22;14341;51.256;22.478;2022-07-23T01:07:09;18.80;99.90
26743;DHT22;14341;51.256;22.478;2022-07-23T01:10:14;18.90;99.90
26743;DHT22;14341;51.256;22.478;2022-07-23T01:13:40;19.00;99.90
26743;DHT22;14341;51.256;22.478;2022-07-23T01:16:46;19.00;99.90
26743;DHT22;14341;51.256;22.478;2022-07-23T01:19:50;18.90;99.90
26743;DHT22;14341;51.256;22.478;2022-07-23T01:22:55;18.90;99.90
26743;DHT22;14341;51.256;22.478;2022-07-23T01:25:58;18.80;99.90
26743;DHT22;14341;51.256;22.478;2022-07-23T01:29:03;18.80;99.90
26743;DHT22;14341;51.256;22.478;2022-07-23T01:32:07;18.90;99.90
26743;DHT22;14341;51.256;22.478;2022-07-23T01:35:10;18.90;99.90
26743;DHT22;14341;51.256;22.478;2022-07-23T01:38:15;18.90;99.90
26743;DHT22;14341;51.256;22.478;2022-07-23T01:41:19;18.90;99.90
26743;DHT22;14341;51.256;22.478;2022-07-23T01:44:23;18.90;99.90
26743;DHT22;14341;51.256;22.478;2022-07-23T01:47:26;18.90;99.90
26743;DHT22;14341;51.256;22.478;2022-07-23T01:50:30;18.90;99.90
26743;DHT22;14341;51.256;22.478;2022-07-23T01:53:56;18.90;99.90
26743;DHT22;14341;51.256;22.478;2022-07-23T01:57:00;18.80;99.90
26743;DHT22;14341;51.256;22.478;2022-07-23T02:00:04;18.80;99.90
26743;DHT22;14341;51.256;22.478;2022-07-23T02:03:13;18.70;99.90
26743;DHT22;14341;51.256;22.478;2022-07-23T02:06:17;18.70;99.90
26743;DHT22;14341;51.256;22.478;2022-07-23T02:09:22;18.70;99.90
26743;DHT22;14341;51.256;22.478;2022-07-23T02:12:25;18.70;99.90
26743;DHT22;14341;51.256;22.478;2022-07-23T02:15:29;18.70;99.90
26743;DHT22;14341;51.256;22.478;2022-07-23T02:18:33;18.70;99.90
26743;DHT22;14341;51.256;22.478;2022-07-23T02:21:36;18.60;99.90
26743;DHT22;14341;51.256;22.478;2022-07-23T02:24:41;18.60;99.90
26743;DHT22;14341;51.256;22.478;2022-07-23T02:27:44;18.50;99.90
26743;DHT22;14341;51.256;22.478;2022-07-23T02:30:47;18.50;99.90
26743;DHT22;14341;51.256;22.478;2022-07-23T02:33:51;18.50;99.90
26743;DHT22;14341;51.256;22.478;2022-07-23T02:36:54;18.40;99.90
26743;DHT22;14341;51.256;22.478;2022-07-23T02:39:59;18.40;99.90
26743;DHT22;14341;51.256;22.478;2022-07-23T02:43:05;18.30;99.90
26743;DHT22;14341;51.256;22.478;2022-07-23T02:46:08;18.30;99.90
26743;DHT22;14341;51.256;22.478;2022-07-23T02:49:12;18.40;99.90
26743;DHT22;14341;51.256;22.478;2022-07-23T02:52:15;18.30;99.90
26743;DHT22;14341;51.256;22.478;2022-07-23T02:55:20;18.30;99.90
26743;DHT22;14341;51.256;22.478;2022-07-23T02:58:23;18.30;99.90
26743;DHT22;14341;51.256;22.478;2022-07-23T03:01:28;18.30;99.90
26743;DHT22;14341;51.256;22.478;2022-07-23T03:04:31;18.20;99.90
26743;DHT22;14341;51.256;22.478;2022-07-23T03:07:35;18.30;99.90
26743;DHT22;14341;51.256;22.478;2022-07-23T03:10:41;18.20;99.90
26743;DHT22;14341;51.256;22.478;2022-07-23T03:13:44;18.20;99.90
26743;DHT22;14341;51.256;22.478;2022-07-23T03:16:47;18.30;99.90
26743;DHT22;14341;51.256;22.478;2022-07-23T03:19:51;18.20;99.90
26743;DHT22;14341;51.256;22.478;2022-07-23T03:22:55;18.20;99.90
26743;DHT22;14341;51.256;22.478;2022-07-23T03:26:00;18.20;99.90
26743;DHT22;14341;51.256;22.478;2022-07-23T03:29:03;18.20;99.90
26743;DHT22;14341;51.256;22.478;2022-07-23T03:32:07;18.30;99.90
26743;DHT22;14341;51.256;22.478;2022-07-23T03:35:10;18.30;99.90
26743;DHT22;14341;51.256;22.478;2022-07-23T03:38:23;18.40;99.90
26743;DHT22;14341;51.256;22.478;2022-07-23T03:41:29;18.40;99.90
26743;DHT22;14341;51.256;22.478;2022-07-23T03:44:32;18.50;99.90
26743;DHT22;14341;51.256;22.478;2022-07-23T03:47:37;18.50;99.90
26743;DHT22;14341;51.256;22.478;2022-07-23T03:50:40;18.50;99.90
26743;DHT22;14341;51.256;22.478;2022-07-23T03:53:45;18.60;99.90
26743;DHT22;14341;51.256;22.478;2022-07-23T03:56:49;18.70;99.90
26743;DHT22;14341;51.256;22.478;2022-07-23T03:59:53;18.80;99.90
26743;DHT22;14341;51.256;22.478;2022-07-23T04:02:56;18.80;99.90
26743;DHT22;14341;51.256;22.478;2022-07-23T04:05:59;18.90;99.90
26743;DHT22;14341;51.256;22.478;2022-07-23T04:09:04;19.10;99.90
26743;DHT22;14341;51.256;22.478;2022-07-23T04:12:09;19.30;99.90
26743;DHT22;14341;51.256;22.478;2022-07-23T04:15:13;19.40;99.90
26743;DHT22;14341;51.256;22.478;2022-07-23T04:18:16;19.60;99.90
26743;DHT22;14341;51.256;22.478;2022-07-23T04:21:28;19.80;99.90
26743;DHT22;14341;51.256;22.478;2022-07-23T04:24:32;20.00;99.90
26743;DHT22;14341;51.256;22.478;2022-07-23T04:27:36;20.20;99.90
26743;DHT22;14341;51.256;22.478;2022-07-23T04:30:39;20.40;99.90
26743;DHT22;14341;51.256;22.478;2022-07-23T04:33:44;20.50;99.90
26743;DHT22;14341;51.256;22.478;2022-07-23T04:36:48;20.70;99.90
26743;DHT22;14341;51.256;22.478;2022-07-23T04:39:51;20.80;99.90
26743;DHT22;14341;51.256;22.478;2022-07-23T04:42:56;20.90;99.90
26743;DHT22;14341;51.256;22.478;2022-07-23T04:46:00;21.00;99.90
26743;DHT22;14341;51.256;22.478;2022-07-23T04:49:09;21.20;99.90
26743;DHT22;14341;51.256;22.478;2022-07-23T04:52:12;21.50;99.90
26743;DHT22;14341;51.256;22.478;2022-07-23T04:55:17;21.70;99.90
26743;DHT22;14341;51.256;22.478;2022-07-23T04:58:22;21.80;99.90
26743;DHT22;14341;51.256;22.478;2022-07-23T05:01:25;21.90;99.90
26743;DHT22;14341;51.256;22.478;2022-07-23T05:04:29;22.00;99.90
26743;DHT22;14341;51.256;22.478;2022-07-23T05:07:33;22.10;99.90
26743;DHT22;14341;51.256;22.478;2022-07-23T05:10:37;22.30;99.90
26743;DHT22;14341;51.256;22.478;2022-07-23T05:13:42;22.40;99.90
26743;DHT22;14341;51.256;22.478;2022-07-23T05:16:45;22.50;99.90
26743;DHT22;14341;51.256;22.478;2022-07-23T05:19:54;22.70;99.90
26743;DHT22;14341;51.256;22.478;2022-07-23T05:23:03;22.80;99.90
26743;DHT22;14341;51.256;22.478;2022-07-23T05:26:06;22.90;99.90
26743;DHT22;14341;51.256;22.478;2022-07-23T05:29:11;23.10;99.90
26743;DHT22;14341;51.256;22.478;2022-07-23T05:32:15;23.30;99.90
26743;DHT22;14341;51.256;22.478;2022-07-23T05:35:25;23.40;99.90
26743;DHT22;14341;51.256;22.478;2022-07-23T05:38:49;23.50;99.90
26743;DHT22;14341;51.256;22.478;2022-07-23T05:41:52;23.70;99.90
26743;DHT22;14341;51.256;22.478;2022-07-23T05:44:57;23.80;99.90
26743;DHT22;14341;51.256;22.478;2022-07-23T05:48:01;23.90;99.90
26743;DHT22;14341;51.256;22.478;2022-07-23T05:51:10;24.10;99.90
26743;DHT22;14341;51.256;22.478;2022-07-23T05:54:14;24.20;99.90
26743;DHT22;14341;51.256;22.478;2022-07-23T05:57:17;24.30;99.90
26743;DHT22;14341;51.256;22.478;2022-07-23T06:00:28;24.40;99.90
26743;DHT22;14341;51.256;22.478;2022-07-23T06:03:32;24.40;99.90
26743;DHT22;14341;51.256;22.478;2022-07-23T06:06:35;24.50;99.90
26743;DHT22;14341;51.256;22.478;2022-07-23T06:09:41;24.50;99.90
26743;DHT22;14341;51.256;22.478;2022-07-23T06:12:44;24.70;99.90
26743;DHT22;14341;51.256;22.478;2022-07-23T06:15:49;24.90;99.90
26743;DHT22;14341;51.256;22.478;2022-07-23T06:18:54;25.00;99.90
26743;DHT22;14341;51.256;22.478;2022-07-23T06:22:00;25.10;99.90
26743;DHT22;14341;51.256;22.478;2022-07-23T06:25:05;25.20;99.90
26743;DHT22;14341;51.256;22.478;2022-07-23T06:28:20;25.30;99.90
26743;DHT22;14341;51.256;22.478;2022-07-23T06:31:26;25.40;91.70
26743;DHT22;14341;51.256;22.478;2022-07-23T06:34:32;25.60;98.20
26743;DHT22;14341;51.256;22.478;2022-07-23T06:37:36;25.60;93.30
26743;DHT22;14341;51.256;22.478;2022-07-23T06:40:39;25.70;97.70
26743;DHT22;14341;51.256;22.478;2022-07-23T06:43:43;25.60;99.90
26743;DHT22;14341;51.256;22.478;2022-07-23T06:46:49;25.70;99.90
26743;DHT22;14341;51.256;22.478;2022-07-23T06:49:53;25.70;99.90
26743;DHT22;14341;51.256;22.478;2022-07-23T06:52:58;25.80;99.90
26743;DHT22;14341;51.256;22.478;2022-07-23T06:56:02;26.00;99.90
26743;DHT22;14341;51.256;22.478;2022-07-23T06:59:07;26.10;82.30
26743;DHT22;14341;51.256;22.478;2022-07-23T07:02:12;26.30;71.30
26743;DHT22;14341;51.256;22.478;2022-07-23T07:05:15;26.40;52.60
26743;DHT22;14341;51.256;22.478;2022-07-23T07:08:19;26.60;56.70
26743;DHT22;14341;51.256;22.478;2022-07-23T07:11:22;26.70;32.40
26743;DHT22;14341;51.256;22.478;2022-07-23T07:14:27;26.80;17.90
26743;DHT22;14341;51.256;22.478;2022-07-23T07:17:32;26.90;30.30
26743;DHT22;14341;51.256;22.478;2022-07-23T07:20:35;27.10;21.50
26743;DHT22;14341;51.256;22.478;2022-07-23T07:23:39;27.10;1.00
26743;DHT22;14341;51.256;22.478;2022-07-23T07:26:42;27.20;15.40
26743;DHT22;14341;51.256;22.478;2022-07-23T07:29:45;27.30;22.00
26743;DHT22;14341;51.256;22.478;2022-07-23T07:32:51;27.60;1.00
26743;DHT22;14341;51.256;22.478;2022-07-23T07:35:58;27.70;1.00
26743;DHT22;14341;51.256;22.478;2022-07-23T07:39:02;27.70;29.40
26743;DHT22;14341;51.256;22.478;2022-07-23T07:42:06;27.50;50.70
26743;DHT22;14341;51.256;22.478;2022-07-23T07:45:10;27.60;23.00
26743;DHT22;14341;51.256;22.478;2022-07-23T07:48:15;27.60;48.00
26743;DHT22;14341;51.256;22.478;2022-07-23T07:51:18;27.80;39.60
26743;DHT22;14341;51.256;22.478;2022-07-23T07:54:21;28.10;1.00
26743;DHT22;14341;51.256;22.478;2022-07-23T07:57:25;28.30;1.00
26743;DHT22;14341;51.256;22.478;2022-07-23T08:00:32;28.40;1.00
26743;DHT22;14341;51.256;22.478;2022-07-23T08:03:37;28.60;1.00
26743;DHT22;14341;51.256;22.478;2022-07-23T08:06:41;28.60;1.00
26743;DHT22;14341;51.256;22.478;2022-07-23T08:09:44;28.60;1.00
26743;DHT22;14341;51.256;22.478;2022-07-23T08:12:49;28.70;1.00
26743;DHT22;14341;51.256;22.478;2022-07-23T08:15:53;28.80;1.00
26743;DHT22;14341;51.256;22.478;2022-07-23T08:18:58;29.00;1.00
26743;DHT22;14341;51.256;22.478;2022-07-23T08:22:01;29.00;1.00
26743;DHT22;14341;51.256;22.478;2022-07-23T08:25:05;29.10;1.00
26743;DHT22;14341;51.256;22.478;2022-07-23T08:28:11;29.10;1.00
26743;DHT22;14341;51.256;22.478;2022-07-23T08:31:15;29.40;1.00
26743;DHT22;14341;51.256;22.478;2022-07-23T08:34:21;29.50;1.00
26743;DHT22;14341;51.256;22.478;2022-07-23T08:37:25;29.60;1.00
26743;DHT22;14341;51.256;22.478;2022-07-23T08:40:30;29.50;1.00
26743;DHT22;14341;51.256;22.478;2022-07-23T08:43:34;29.60;1.00
26743;DHT22;14341;51.256;22.478;2022-07-23T08:46:39;29.60;1.00
26743;DHT22;14341;51.256;22.478;2022-07-23T08:49:47;29.60;1.00
26743;DHT22;14341;51.256;22.478;2022-07-23T08:52:51;30.00;1.00
26743;DHT22;14341;51.256;22.478;2022-07-23T08:55:56;30.30;1.00
26743;DHT22;14341;51.256;22.478;2022-07-23T08:59:00;30.40;1.00
26743;DHT22;14341;51.256;22.478;2022-07-23T09:02:04;30.30;1.00
26743;DHT22;14341;51.256;22.478;2022-07-23T09:05:11;30.40;1.00
26743;DHT22;14341;51.256;22.478;2022-07-23T09:08:16;30.70;1.00
26743;DHT22;14341;51.256;22.478;2022-07-23T09:11:20;31.10;1.00
26743;DHT22;14341;51.256;22.478;2022-07-23T09:14:36;31.30;1.00
26743;DHT22;14341;51.256;22.478;2022-07-23T09:17:42;31.40;1.00
26743;DHT22;14341;51.256;22.478;2022-07-23T09:20:47;31.30;1.00
26743;DHT22;14341;51.256;22.478;2022-07-23T09:23:56;31.30;1.00
26743;DHT22;14341;51.256;22.478;2022-07-23T09:27:00;31.20;1.00
26743;DHT22;14341;51.256;22.478;2022-07-23T09:30:06;31.30;1.00
26743;DHT22;14341;51.256;22.478;2022-07-23T09:33:12;31.20;1.00
26743;DHT22;14341;51.256;22.478;2022-07-23T09:36:27;31.30;1.00
26743;DHT22;14341;51.256;22.478;2022-07-23T09:39:32;31.20;1.00
26743;DHT22;14341;51.256;22.478;2022-07-23T09:42:36;30.80;1.00
26743;DHT22;14341;51.256;22.478;2022-07-23T09:45:40;31.00;1.00
26743;DHT22;14341;51.256;22.478;2022-07-23T09:48:44;31.10;1.00
26743;DHT22;14341;51.256;22.478;2022-07-23T09:51:53;31.30;1.00
26743;DHT22;14341;51.256;22.478;2022-07-23T09:55:00;31.40;1.00
26743;DHT22;14341;51.256;22.478;2022-07-23T09:58:05;31.10;1.00
26743;DHT22;14341;51.256;22.478;2022-07-23T10:04:15;31.40;1.00
26743;DHT22;14341;51.256;22.478;2022-07-23T10:07:43;31.70;1.00
26743;DHT22;14341;51.256;22.478;2022-07-23T10:11:14;31.70;1.00
26743;DHT22;14341;51.256;22.478;2022-07-23T10:14:36;31.50;1.00
26743;DHT22;14341;51.256;22.478;2022-07-23T10:17:43;31.70;1.00
26743;DHT22;14341;51.256;22.478;2022-07-23T10:20:47;32.00;1.00
26743;DHT22;14341;51.256;22.478;2022-07-23T10:24:10;32.30;1.00
26743;DHT22;14341;51.256;22.478;2022-07-23T10:27:36;32.10;1.00
26743;DHT22;14341;51.256;22.478;2022-07-23T10:30:51;32.20;1.00
26743;DHT22;14341;51.256;22.478;2022-07-23T10:34:07;32.00;1.00
26743;DHT22;14341;51.256;22.478;2022-07-23T10:37:21;31.90;1.00
26743;DHT22;14341;51.256;22.478;2022-07-23T10:40:31;32.10;1.00
26743;DHT22;14341;51.256;22.478;2022-07-23T10:43:34;32.40;1.00
26743;DHT22;14341;51.256;22.478;2022-07-23T10:46:57;32.80;1.00
26743;DHT22;14341;51.256;22.478;2022-07-23T10:50:20;32.70;1.00
26743;DHT22;14341;51.256;22.478;2022-07-23T10:53:24;33.00;1.00
26743;DHT22;14341;51.256;22.478;2022-07-23T10:57:03;33.20;1.00
26743;DHT22;14341;51.256;22.478;2022-07-23T11:00:21;33.50;1.00
26743;DHT22;14341;51.256;22.478;2022-07-23T11:03:32;33.30;1.00
26743;DHT22;14341;51.256;22.478;2022-07-23T11:07:06;33.50;1.00
26743;DHT22;14341;51.256;22.478;2022-07-23T11:10:34;33.30;1.00
26743;DHT22;14341;51.256;22.478;2022-07-23T11:13:41;33.30;1.00
26743;DHT22;14341;51.256;22.478;2022-07-23T11:16:46;33.50;1.00
26743;DHT22;14341;51.256;22.478;2022-07-23T11:20:13;33.80;1.00
26743;DHT22;14341;51.256;22.478;2022-07-23T11:23:18;33.00;1.00
26743;DHT22;14341;51.256;22.478;2022-07-23T11:26:43;32.80;1.00
26743;DHT22;14341;51.256;22.478;2022-07-23T11:29:51;34.00;1.00
26743;DHT22;14341;51.256;22.478;2022-07-23T11:33:17;35.50;1.00
26743;DHT22;14341;51.256;22.478;2022-07-23T11:36:21;35.90;1.00
26743;DHT22;14341;51.256;22.478;2022-07-23T11:39:27;36.50;1.00
26743;DHT22;14341;51.256;22.478;2022-07-23T11:42:32;37.10;1.00
26743;DHT22;14341;51.256;22.478;2022-07-23T11:45:38;37.10;1.00
26743;DHT22;14341;51.256;22.478;2022-07-23T11:48:41;37.60;1.00
26743;DHT22;14341;51.256;22.478;2022-07-23T11:51:45;37.30;1.00
26743;DHT22;14341;51.256;22.478;2022-07-23T11:54:50;37.70;1.00
26743;DHT22;14341;51.256;22.478;2022-07-23T11:57:55;38.30;1.00
26743;DHT22;14341;51.256;22.478;2022-07-23T12:01:02;38.40;1.00
26743;DHT22;14341;51.256;22.478;2022-07-23T12:04:06;37.60;1.00
26743;DHT22;14341;51.256;22.478;2022-07-23T12:07:32;37.90;1.00
26743;DHT22;14341;51.256;22.478;2022-07-23T12:10:38;38.20;1.00
26743;DHT22;14341;51.256;22.478;2022-07-23T12:13:43;37.60;1.00
26743;DHT22;14341;51.256;22.478;2022-07-23T12:17:06;36.70;1.00
26743;DHT22;14341;51.256;22.478;2022-07-23T12:20:13;35.80;1.00
26743;DHT22;14341;51.256;22.478;2022-07-23T12:23:21;35.10;1.00
26743;DHT22;14341;51.256;22.478;2022-07-23T12:26:25;36.00;1.00
26743;DHT22;14341;51.256;22.478;2022-07-23T12:29:34;36.80;1.00
26743;DHT22;14341;51.256;22.478;2022-07-23T12:32:43;37.10;1.00
26743;DHT22;14341;51.256;22.478;2022-07-23T12:35:46;38.10;1.00
26743;DHT22;14341;51.256;22.478;2022-07-23T12:38:50;38.30;1.00
26743;DHT22;14341;51.256;22.478;2022-07-23T12:41:54;38.00;1.00
26743;DHT22;14341;51.256;22.478;2022-07-23T12:45:07;38.00;1.00
26743;DHT22;14341;51.256;22.478;2022-07-23T12:48:24;38.00;1.00
26743;DHT22;14341;51.256;22.478;2022-07-23T12:51:29;38.40;1.00
26743;DHT22;14341;51.256;22.478;2022-07-23T12:54:34;38.00;1.00
26743;DHT22;14341;51.256;22.478;2022-07-23T12:57:46;36.80;1.00
26743;DHT22;14341;51.256;22.478;2022-07-23T13:00:56;37.70;1.00
26743;DHT22;14341;51.256;22.478;2022-07-23T13:04:03;38.00;1.00
26743;DHT22;14341;51.256;22.478;2022-07-23T13:07:14;37.80;1.00
26743;DHT22;14341;51.256;22.478;2022-07-23T13:10:18;38.80;1.00
26743;DHT22;14341;51.256;22.478;2022-07-23T13:13:24;38.90;1.00
26743;DHT22;14341;51.256;22.478;2022-07-23T13:16:32;39.50;1.00
26743;DHT22;14341;51.256;22.478;2022-07-23T13:19:37;39.20;1.00
26743;DHT22;14341;51.256;22.478;2022-07-23T13:22:41;39.20;1.00
26743;DHT22;14341;51.256;22.478;2022-07-23T13:25:45;39.20;1.00
26743;DHT22;14341;51.256;22.478;2022-07-23T13:28:49;39.90;1.00
26743;DHT22;14341;51.256;22.478;2022-07-23T13:31:52;40.60;1.00
26743;DHT22;14341;51.256;22.478;2022-07-23T13:34:59;40.90;1.00
26743;DHT22;14341;51.256;22.478;2022-07-23T13:38:03;41.80;1.00
26743;DHT22;14341;51.256;22.478;2022-07-23T13:41:08;40.50;1.00
26743;DHT22;14341;51.256;22.478;2022-07-23T13:44:13;42.00;1.00
26743;DHT22;14341;51.256;22.478;2022-07-23T13:47:17;41.40;1.00
26743;DHT22;14341;51.256;22.478;2022-07-23T13:50:23;40.60;1.00
26743;DHT22;14341;51.256;22.478;2022-07-23T13:53:34;40.60;1.00
26743;DHT22;14341;51.256;22.478;2022-07-23T13:56:37;39.80;1.00
26743;DHT22;14341;51.256;22.478;2022-07-23T13:59:41;39.80;1.00
26743;DHT22;14341;51.256;22.478;2022-07-23T14:02:45;40.00;1.00
26743;DHT22;14341;51.256;22.478;2022-07-23T14:05:52;39.90;1.00
26743;DHT22;14341;51.256;22.478;2022-07-23T14:08:59;39.90;1.00
26743;DHT22;14341;51.256;22.478;2022-07-23T14:12:04;39.80;1.00
26743;DHT22;14341;51.256;22.478;2022-07-23T14:15:09;39.30;1.00
26743;DHT22;14341;51.256;22.478;2022-07-23T14:18:14;38.70;1.00
26743;DHT22;14341;51.256;22.478;2022-07-23T14:21:20;38.50;1.00
26743;DHT22;14341;51.256;22.478;2022-07-23T14:24:24;38.60;1.00
26743;DHT22;14341;51.256;22.478;2022-07-23T14:27:34;37.70;1.00
26743;DHT22;14341;51.256;22.478;2022-07-23T14:30:39;37.50;1.00
26743;DHT22;14341;51.256;22.478;2022-07-23T14:33:46;37.20;1.00
26743;DHT22;14341;51.256;22.478;2022-07-23T14:36:51;38.00;1.00
26743;DHT22;14341;51.256;22.478;2022-07-23T14:39:54;38.70;1.00
26743;DHT22;14341;51.256;22.478;2022-07-23T14:42:58;38.30;1.00
26743;DHT22;14341;51.256;22.478;2022-07-23T14:46:02;37.60;1.00
26743;DHT22;14341;51.256;22.478;2022-07-23T14:49:05;37.90;1.00
26743;DHT22;14341;51.256;22.478;2022-07-23T14:52:11;37.40;1.00
26743;DHT22;14341;51.256;22.478;2022-07-23T14:55:14;37.40;1.00
26743;DHT22;14341;51.256;22.478;2022-07-23T14:58:19;37.80;1.00
26743;DHT22;14341;51.256;22.478;2022-07-23T15:01:23;38.70;1.00
26743;DHT22;14341;51.256;22.478;2022-07-23T15:04:27;39.60;1.00
26743;DHT22;14341;51.256;22.478;2022-07-23T15:07:41;39.80;1.00
26743;DHT22;14341;51.256;22.478;2022-07-23T15:10:44;41.00;1.00
26743;DHT22;14341;51.256;22.478;2022-07-23T15:13:49;41.00;1.00
26743;DHT22;14341;51.256;22.478;2022-07-23T15:16:52;40.50;1.00
26743;DHT22;14341;51.256;22.478;2022-07-23T15:19:55;41.30;1.00
26743;DHT22;14341;51.256;22.478;2022-07-23T15:23:00;40.50;1.00
26743;DHT22;14341;51.256;22.478;2022-07-23T15:26:04;41.00;1.00
26743;DHT22;14341;51.256;22.478;2022-07-23T15:29:08;40.90;1.00
26743;DHT22;14341;51.256;22.478;2022-07-23T15:32:14;41.20;1.00
26743;DHT22;14341;51.256;22.478;2022-07-23T15:35:18;41.40;1.00
26743;DHT22;14341;51.256;22.478;2022-07-23T15:38:23;41.20;1.00
26743;DHT22;14341;51.256;22.478;2022-07-23T15:41:27;41.60;1.00
26743;DHT22;14341;51.256;22.478;2022-07-23T15:44:30;41.70;1.00
26743;DHT22;14341;51.256;22.478;2022-07-23T15:47:34;41.70;1.00
26743;DHT22;14341;51.256;22.478;2022-07-23T15:50:37;41.40;1.00
26743;DHT22;14341;51.256;22.478;2022-07-23T15:53:48;41.50;1.00
26743;DHT22;14341;51.256;22.478;2022-07-23T15:56:52;39.80;1.00
26743;DHT22;14341;51.256;22.478;2022-07-23T15:59:56;38.60;1.00
26743;DHT22;14341;51.256;22.478;2022-07-23T16:02:59;37.30;1.00
26743;DHT22;14341;51.256;22.478;2022-07-23T16:06:08;37.20;1.00
26743;DHT22;14341;51.256;22.478;2022-07-23T16:09:20;36.10;1.00
26743;DHT22;14341;51.256;22.478;2022-07-23T16:12:23;35.10;1.00
26743;DHT22;14341;51.256;22.478;2022-07-23T16:15:26;33.90;1.00
26743;DHT22;14341;51.256;22.478;2022-07-23T16:18:30;33.00;1.00
26743;DHT22;14341;51.256;22.478;2022-07-23T16:21:34;32.10;1.00
26743;DHT22;14341;51.256;22.478;2022-07-23T16:24:39;31.60;1.00
26743;DHT22;14341;51.256;22.478;2022-07-23T16:27:48;31.10;1.00
26743;DHT22;14341;51.256;22.478;2022-07-23T16:30:52;30.80;1.00
26743;DHT22;14341;51.256;22.478;2022-07-23T16:33:55;30.50;1.00
26743;DHT22;14341;51.256;22.478;2022-07-23T16:36:59;30.30;1.00
26743;DHT22;14341;51.256;22.478;2022-07-23T16:40:06;29.50;1.00
26743;DHT22;14341;51.256;22.478;2022-07-23T16:43:12;29.20;1.00
26743;DHT22;14341;51.256;22.478;2022-07-23T16:46:15;29.20;1.00
26743;DHT22;14341;51.256;22.478;2022-07-23T16:49:19;29.20;1.00
26743;DHT22;14341;51.256;22.478;2022-07-23T16:52:23;28.90;1.00
26743;DHT22;14341;51.256;22.478;2022-07-23T16:55:28;28.60;1.00
26743;DHT22;14341;51.256;22.478;2022-07-23T16:58:32;28.40;1.00
26743;DHT22;14341;51.256;22.478;2022-07-23T17:01:36;28.10;1.00
26743;DHT22;14341;51.256;22.478;2022-07-23T17:04:39;27.90;16.50
26743;DHT22;14341;51.256;22.478;2022-07-23T17:07:43;28.10;7.50
26743;DHT22;14341;51.256;22.478;2022-07-23T17:10:48;27.90;17.70
26743;DHT22;14341;51.256;22.478;2022-07-23T17:13:51;27.80;17.80
26743;DHT22;14341;51.256;22.478;2022-07-23T17:16:55;27.30;33.90
26743;DHT22;14341;51.256;22.478;2022-07-23T17:19:58;27.20;28.70
26743;DHT22;14341;51.256;22.478;2022-07-23T17:23:02;26.90;45.90
26743;DHT22;14341;51.256;22.478;2022-07-23T17:26:07;27.00;41.00
26743;DHT22;14341;51.256;22.478;2022-07-23T17:29:11;26.90;55.90
26743;DHT22;14341;51.256;22.478;2022-07-23T17:32:14;26.90;51.20
26743;DHT22;14341;51.256;22.478;2022-07-23T17:35:18;26.80;69.50
26743;DHT22;14341;51.256;22.478;2022-07-23T17:38:22;26.50;76.10
26743;DHT22;14341;51.256;22.478;2022-07-23T17:41:27;26.70;1.00
26743;DHT22;14341;51.256;22.478;2022-07-23T17:44:30;26.80;1.00
26743;DHT22;14341;51.256;22.478;2022-07-23T17:47:34;26.80;1.00
26743;DHT22;14341;51.256;22.478;2022-07-23T17:50:38;26.60;13.20
26743;DHT22;14341;51.256;22.478;2022-07-23T17:53:41;26.40;23.10
26743;DHT22;14341;51.256;22.478;2022-07-23T17:56:46;26.40;1.00
26743;DHT22;14341;51.256;22.478;2022-07-23T17:59:49;26.20;1.00
26743;DHT22;14341;51.256;22.478;2022-07-23T18:02:53;25.90;17.90
26743;DHT22;14341;51.256;22.478;2022-07-23T18:05:57;25.60;30.50
26743;DHT22;14341;51.256;22.478;2022-07-23T18:09:00;25.20;51.60
26743;DHT22;14341;51.256;22.478;2022-07-23T18:12:10;24.80;72.80
26743;DHT22;14341;51.256;22.478;2022-07-23T18:15:14;24.60;80.80
26743;DHT22;14341;51.256;22.478;2022-07-23T18:18:18;24.40;85.60
26743;DHT22;14341;51.256;22.478;2022-07-23T18:21:22;24.30;90.10
26743;DHT22;14341;51.256;22.478;2022-07-23T18:24:25;24.20;91.40
26743;DHT22;14341;51.256;22.478;2022-07-23T18:27:30;24.10;95.50
26743;DHT22;14341;51.256;22.478;2022-07-23T18:30:33;24.00;97.60
26743;DHT22;14341;51.256;22.478;2022-07-23T18:33:37;23.70;99.90
26743;DHT22;14341;51.256;22.478;2022-07-23T18:36:41;23.40;99.90
26743;DHT22;14341;51.256;22.478;2022-07-23T18:39:44;23.10;99.90
26743;DHT22;14341;51.256;22.478;2022-07-23T18:42:49;22.90;99.90
26743;DHT22;14341;51.256;22.478;2022-07-23T18:45:52;22.60;99.90
26743;DHT22;14341;51.256;22.478;2022-07-23T18:48:59;22.40;99.90
26743;DHT22;14341;51.256;22.478;2022-07-23T18:56:10;22.30;99.90
26743;DHT22;14341;51.256;22.478;2022-07-23T18:59:15;22.30;99.90
26743;DHT22;14341;51.256;22.478;2022-07-23T19:02:24;22.10;99.90
26743;DHT22;14341;51.256;22.478;2022-07-23T19:05:28;22.10;99.90
26743;DHT22;14341;51.256;22.478;2022-07-23T19:08:31;22.00;99.90
26743;DHT22;14341;51.256;22.478;2022-07-23T19:11:35;21.90;99.90
26743;DHT22;14341;51.256;22.478;2022-07-23T19:14:40;22.00;99.90
26743;DHT22;14341;51.256;22.478;2022-07-23T19:17:44;21.90;99.90
26743;DHT22;14341;51.256;22.478;2022-07-23T19:20:47;21.90;99.90
26743;DHT22;14341;51.256;22.478;2022-07-23T19:23:51;21.90;99.90
26743;DHT22;14341;51.256;22.478;2022-07-23T19:26:56;21.90;99.90
26743;DHT22;14341;51.256;22.478;2022-07-23T19:30:10;21.80;99.90
26743;DHT22;14341;51.256;22.478;2022-07-23T19:33:13;21.70;99.90